createdAt,value
2018-05-11T00:00:06.439Z,99.90
2018-05-11T00:02:34.531Z,99.90
2018-05-11T00:05:05.640Z,99.90
2018-05-11T00:07:33.755Z,99.90
2018-05-11T00:10:06.481Z,99.90
2018-05-11T00:12:34.574Z,99.90
2018-05-11T00:15:07.356Z,99.90
2018-05-11T00:17:35.695Z,99.90
2018-05-11T00:20:03.792Z,99.90
2018-05-11T00:22:35.917Z,99.90
2018-05-11T00:25:06.797Z,99.90
2018-05-11T00:27:35.862Z,99.90
2018-05-11T00:30:04.909Z,99.90
2018-05-11T00:32:33.984Z,99.90
2018-05-11T00:35:02.987Z,99.90
2018-05-11T00:37:32.060Z,99.90
2018-05-11T00:40:16.810Z,99.90
2018-05-11T00:42:44.912Z,99.90
2018-05-11T00:45:15.032Z,99.90
2018-05-11T00:47:43.116Z,99.90
2018-05-11T00:50:12.200Z,99.90
2018-05-11T00:52:42.003Z,99.90
2018-05-11T00:55:25.066Z,99.90
2018-05-11T00:57:53.176Z,99.90
2018-05-11T01:00:21.329Z,99.90
2018-05-11T01:02:49.421Z,99.90
2018-05-11T01:05:27.471Z,99.90
2018-05-11T01:07:55.565Z,99.90
2018-05-11T01:10:23.642Z,99.90
2018-05-11T01:12:51.740Z,99.90
2018-05-11T01:15:24.676Z,99.90
2018-05-11T01:20:53.079Z,99.90
2018-05-11T01:23:26.963Z,99.90
2018-05-11T01:25:55.022Z,99.90
2018-05-11T01:28:23.149Z,99.90
2018-05-11T01:30:52.992Z,99.90
2018-05-11T01:33:25.334Z,99.90
2018-05-11T01:35:53.444Z,99.90
2018-05-11T01:38:22.293Z,99.90
2018-05-11T01:40:51.365Z,99.90
2018-05-11T01:43:20.217Z,99.90
2018-05-11T01:45:48.310Z,99.90
2018-05-11T01:48:23.169Z,99.90
2018-05-11T01:50:51.261Z,99.90
2018-05-11T01:53:22.051Z,99.90
2018-05-11T01:55:50.144Z,99.90
2018-05-11T01:58:19.924Z,99.90
2018-05-11T02:00:51.711Z,99.90
2018-05-11T02:03:34.992Z,99.90
2018-05-11T02:06:07.652Z,99.90
2018-05-11T02:08:39.825Z,99.90
2018-05-11T02:11:08.822Z,99.90
2018-05-11T02:13:38.675Z,99.90
2018-05-11T02:16:08.676Z,99.90
2018-05-11T02:18:37.699Z,99.90
2018-05-11T02:21:05.851Z,99.90
2018-05-11T02:23:35.899Z,99.90
2018-05-11T02:26:04.023Z,99.90
2018-05-11T02:28:32.089Z,99.90
2018-05-11T02:31:01.176Z,99.90
2018-05-11T02:33:29.292Z,99.90
2018-05-11T02:35:57.395Z,99.90
2018-05-11T02:38:27.403Z,99.90
2018-05-11T02:40:55.514Z,99.90
2018-05-11T02:43:23.611Z,99.90
2018-05-11T02:45:51.712Z,99.90
2018-05-11T02:48:20.674Z,99.90
2018-05-11T02:51:11.730Z,99.90
2018-05-11T02:53:39.825Z,99.90
2018-05-11T02:56:09.660Z,99.90
2018-05-11T02:58:39.716Z,99.90
2018-05-11T03:01:07.885Z,99.90
2018-05-11T03:03:36.915Z,99.90
2018-05-11T03:06:05.985Z,99.90
2018-05-11T03:08:34.090Z,99.90
2018-05-11T03:11:02.201Z,99.90
2018-05-11T03:13:30.303Z,99.90
2018-05-11T03:15:59.421Z,99.90
2018-05-11T03:18:27.576Z,99.90
2018-05-11T03:20:56.524Z,99.90
2018-05-11T03:23:25.445Z,99.90
2018-05-11T03:25:55.074Z,99.90
2018-05-11T03:28:25.109Z,99.90
2018-05-11T03:30:55.118Z,99.90
2018-05-11T03:33:23.209Z,99.90
2018-05-11T03:35:51.291Z,99.90
2018-05-11T03:38:19.389Z,99.90
2018-05-11T03:40:48.403Z,99.90
2018-05-11T03:43:23.532Z,99.90
2018-05-11T03:45:51.674Z,99.90
2018-05-11T03:48:19.758Z,99.90
2018-05-11T03:50:50.865Z,99.90
2018-05-11T03:53:20.932Z,99.90
2018-05-11T03:55:49.041Z,99.90
2018-05-11T03:58:17.939Z,99.90
2018-05-11T04:00:46.004Z,99.90
2018-05-11T04:03:25.914Z,99.90
2018-05-11T04:06:01.558Z,99.90
2018-05-11T04:08:51.219Z,99.90
2018-05-11T04:11:23.462Z,99.90
2018-05-11T04:13:51.578Z,99.90
2018-05-11T04:16:19.643Z,99.90
2018-05-11T04:18:47.744Z,99.90
2018-05-11T04:21:15.849Z,99.90
2018-05-11T04:23:50.220Z,99.90
2018-05-11T04:26:20.297Z,99.90
2018-05-11T04:28:50.394Z,99.90
2018-05-11T04:31:22.173Z,99.90
2018-05-11T04:33:50.309Z,99.90
2018-05-11T04:36:18.455Z,99.90
2018-05-11T04:38:47.529Z,99.90
2018-05-11T04:41:15.620Z,99.90
2018-05-11T04:43:43.731Z,99.90
2018-05-11T04:46:19.751Z,99.90
2018-05-11T04:48:48.633Z,99.90
2018-05-11T04:51:19.931Z,99.90
2018-05-11T04:53:54.329Z,99.90
2018-05-11T04:56:22.423Z,99.90
2018-05-11T04:58:51.283Z,99.90
2018-05-11T05:01:19.461Z,99.90
2018-05-11T05:03:48.441Z,99.90
2018-05-11T05:06:16.534Z,99.90
2018-05-11T05:08:44.619Z,99.90
2018-05-11T05:11:12.701Z,99.90
2018-05-11T05:13:41.726Z,99.90
2018-05-11T05:16:10.844Z,99.90
2018-05-11T05:18:43.557Z,99.90
2018-05-11T05:21:13.563Z,99.90
2018-05-11T05:23:42.667Z,99.90
2018-05-11T05:26:12.662Z,99.90
2018-05-11T05:28:40.746Z,99.90
2018-05-11T05:31:08.835Z,99.90
2018-05-11T05:33:36.954Z,99.90
2018-05-11T05:36:05.114Z,99.90
2018-05-11T05:38:33.226Z,99.90
2018-05-11T05:41:03.333Z,99.90
2018-05-11T05:43:38.261Z,99.90
2018-05-11T05:46:06.375Z,99.90
2018-05-11T05:48:40.556Z,99.90
2018-05-11T05:51:12.013Z,99.90
2018-05-11T05:53:40.300Z,99.90
2018-05-11T05:56:08.403Z,99.90
2018-05-11T05:58:49.390Z,99.90
2018-05-11T06:01:19.749Z,99.90
2018-05-11T06:03:47.844Z,99.90
2018-05-11T06:06:18.650Z,99.90
2018-05-11T06:08:48.479Z,99.90
2018-05-11T06:11:17.368Z,99.90
2018-05-11T06:13:47.221Z,99.90
2018-05-11T06:16:20.225Z,99.90
2018-05-11T06:18:55.634Z,99.90
2018-05-11T06:21:24.684Z,99.90
2018-05-11T06:24:00.342Z,99.90
2018-05-11T06:26:32.484Z,99.90
2018-05-11T06:29:02.217Z,99.90
2018-05-11T06:31:32.169Z,99.90
2018-05-11T06:34:00.605Z,99.90
2018-05-11T06:36:29.710Z,99.90
2018-05-11T06:38:59.806Z,99.90
2018-05-11T06:41:27.936Z,99.90
2018-05-11T06:43:56.013Z,99.90
2018-05-11T06:46:25.880Z,99.90
2018-05-11T06:48:53.986Z,99.90
2018-05-11T06:51:22.091Z,99.90
2018-05-11T06:53:51.196Z,99.90
2018-05-11T06:56:23.383Z,99.90
2018-05-11T06:58:52.033Z,99.90
2018-05-11T07:01:21.939Z,99.90
2018-05-11T07:03:50.059Z,99.90
2018-05-11T07:06:18.137Z,99.90
2018-05-11T07:08:46.237Z,99.90
2018-05-11T07:11:15.349Z,99.90
2018-05-11T07:13:45.473Z,99.90
2018-05-11T07:16:13.579Z,99.90
2018-05-11T07:18:41.669Z,99.90
2018-05-11T07:21:14.686Z,99.90
2018-05-11T07:23:53.160Z,99.90
2018-05-11T07:26:21.283Z,99.90
2018-05-11T07:28:49.392Z,99.90
2018-05-11T07:31:18.428Z,99.90
2018-05-11T07:33:46.522Z,99.90
2018-05-11T07:36:19.071Z,99.90
2018-05-11T07:38:50.812Z,99.90
2018-05-11T07:41:20.849Z,99.90
2018-05-11T07:43:49.003Z,99.90
2018-05-11T07:46:19.045Z,99.90
2018-05-11T07:48:47.162Z,99.90
2018-05-11T07:51:15.293Z,99.90
2018-05-11T07:53:43.372Z,99.90
2018-05-11T07:56:13.479Z,99.90
2018-05-11T07:58:41.634Z,99.90
2018-05-11T08:01:22.944Z,99.90
2018-05-11T08:03:51.138Z,99.90
2018-05-11T08:06:20.092Z,99.90
2018-05-11T08:08:48.202Z,99.90
2018-05-11T08:11:16.305Z,99.90
2018-05-11T08:13:44.388Z,99.90
2018-05-11T08:16:12.492Z,99.90
2018-05-11T08:18:45.006Z,99.90
2018-05-11T08:21:13.140Z,99.90
2018-05-11T08:23:41.180Z,99.90
2018-05-11T08:26:09.316Z,99.90
2018-05-11T08:28:37.473Z,99.90
2018-05-11T08:31:05.730Z,99.90
2018-05-11T08:33:33.819Z,99.90
2018-05-11T08:36:06.150Z,99.90
2018-05-11T08:38:42.833Z,99.90
2018-05-11T08:41:11.054Z,99.90
2018-05-11T08:43:41.874Z,99.90
2018-05-11T08:46:12.742Z,99.90
2018-05-11T08:48:41.111Z,99.90
2018-05-11T08:51:09.225Z,99.90
2018-05-11T08:53:37.319Z,99.90
2018-05-11T08:56:06.099Z,99.90
2018-05-11T08:58:34.268Z,99.90
2018-05-11T09:01:02.392Z,99.90
2018-05-11T09:03:30.523Z,99.90
2018-05-11T09:05:58.661Z,99.90
2018-05-11T09:08:28.566Z,99.90
2018-05-11T09:10:56.644Z,99.90
2018-05-11T09:13:28.565Z,99.90
2018-05-11T09:15:58.198Z,99.90
2018-05-11T09:18:26.814Z,99.90
2018-05-11T09:20:55.908Z,99.90
2018-05-11T09:23:25.940Z,99.90
2018-05-11T09:25:54.803Z,99.90
2018-05-11T09:28:23.559Z,99.90
2018-05-11T09:30:51.649Z,99.90
2018-05-11T09:33:19.830Z,99.90
2018-05-11T09:35:47.955Z,99.90
2018-05-11T09:38:16.081Z,99.90
2018-05-11T09:40:45.383Z,99.90
2018-05-11T09:43:26.003Z,99.90
2018-05-11T09:45:54.891Z,99.90
2018-05-11T09:48:23.518Z,99.90
2018-05-11T09:51:01.474Z,99.90
2018-05-11T09:53:30.677Z,99.90
2018-05-11T09:56:05.401Z,99.90
2018-05-11T09:58:33.511Z,99.90
2018-05-11T10:01:02.141Z,99.90
2018-05-11T10:03:30.229Z,99.90
2018-05-11T10:05:58.315Z,99.90
2018-05-11T10:08:27.314Z,99.90
2018-05-11T10:10:55.418Z,99.90
2018-05-11T10:13:24.341Z,99.90
2018-05-11T10:15:52.435Z,99.90
2018-05-11T10:18:20.563Z,99.90
2018-05-11T10:20:53.300Z,99.90
2018-05-11T10:23:21.331Z,99.90
2018-05-11T10:25:49.469Z,99.90
2018-05-11T10:28:17.569Z,99.90
2018-05-11T10:30:45.651Z,99.90
2018-05-11T10:33:13.748Z,99.90
2018-05-11T10:35:41.857Z,99.90
2018-05-11T10:38:10.001Z,99.90
2018-05-11T10:40:38.146Z,99.90
2018-05-11T10:43:13.310Z,99.90
2018-05-11T10:45:42.258Z,99.90
2018-05-11T10:48:10.400Z,99.90
2018-05-11T10:50:39.505Z,99.90
2018-05-11T10:53:09.708Z,99.90
2018-05-11T10:55:37.796Z,99.90
2018-05-11T10:58:06.259Z,99.90
2018-05-11T11:00:36.464Z,99.90
2018-05-11T11:03:05.893Z,99.90
2018-05-11T11:05:34.083Z,99.90
2018-05-11T11:08:03.133Z,99.90
2018-05-11T11:10:31.209Z,99.90
2018-05-11T11:12:59.302Z,99.90
2018-05-11T11:15:29.393Z,99.90
2018-05-11T11:17:59.418Z,99.90
2018-05-11T11:20:27.550Z,99.90
2018-05-11T11:22:55.999Z,99.90
2018-05-11T11:25:25.876Z,99.90
2018-05-11T11:28:01.157Z,99.90
2018-05-11T11:30:29.340Z,99.90
2018-05-11T11:32:57.535Z,99.90
2018-05-11T11:35:29.203Z,99.90
2018-05-11T11:37:57.342Z,99.90
2018-05-11T11:40:25.492Z,99.90
2018-05-11T11:42:54.708Z,99.90
2018-05-11T11:45:23.390Z,99.90
2018-05-11T11:47:51.502Z,99.90
2018-05-11T11:50:19.600Z,99.90
2018-05-11T11:52:47.757Z,99.90
2018-05-11T11:55:16.173Z,99.90
2018-05-11T11:57:45.293Z,99.90
2018-05-11T12:00:17.375Z,99.90
2018-05-11T12:02:45.486Z,99.90
2018-05-11T12:05:13.578Z,99.90
2018-05-11T12:07:41.706Z,99.90
2018-05-11T12:10:09.905Z,99.90
2018-05-11T12:12:40.434Z,99.90
2018-05-11T12:15:15.347Z,99.90
2018-05-11T12:17:44.449Z,99.90
2018-05-11T12:20:12.568Z,99.90
2018-05-11T12:22:40.778Z,99.90
2018-05-11T12:25:08.923Z,99.90
2018-05-11T12:27:41.605Z,99.90
2018-05-11T12:30:09.853Z,99.90
2018-05-11T12:32:38.956Z,99.90
2018-05-11T12:35:13.474Z,99.90
2018-05-11T12:37:41.561Z,99.90
2018-05-11T12:40:10.173Z,99.80
2018-05-11T12:42:38.298Z,99.60
2018-05-11T12:45:06.496Z,99.20
2018-05-11T12:47:34.701Z,99.10
2018-05-11T12:50:02.853Z,99.00
2018-05-11T12:52:31.859Z,99.00
2018-05-11T12:54:59.969Z,99.10
2018-05-11T12:57:28.833Z,98.80
2018-05-11T12:59:58.992Z,98.40
2018-05-11T13:02:33.628Z,98.40
2018-05-11T13:05:01.741Z,98.50
2018-05-11T13:07:29.837Z,98.90
2018-05-11T13:09:58.889Z,99.90
2018-05-11T13:12:27.110Z,99.90
2018-05-11T13:14:55.187Z,99.90
2018-05-11T13:17:24.764Z,99.90
2018-05-11T13:19:52.333Z,99.90
2018-05-11T13:22:29.680Z,99.90
2018-05-11T13:24:57.764Z,99.90
2018-05-11T13:27:25.910Z,99.90
2018-05-11T13:29:56.004Z,99.90
2018-05-11T13:32:27.966Z,99.90
2018-05-11T13:34:57.006Z,99.90
2018-05-11T13:37:27.335Z,99.90
2018-05-11T13:39:56.814Z,99.70
2018-05-11T13:42:25.878Z,99.70
2018-05-11T13:45:05.646Z,99.70
2018-05-11T13:47:35.810Z,99.40
2018-05-11T13:50:05.848Z,99.70
2018-05-11T13:52:33.943Z,99.80
2018-05-11T13:55:06.062Z,99.40
2018-05-11T13:57:35.536Z,99.90
2018-05-11T14:00:03.899Z,99.90
2018-05-11T14:02:32.644Z,99.70
2018-05-11T14:05:00.769Z,99.60
2018-05-11T14:07:31.443Z,99.50
2018-05-11T14:09:59.533Z,99.50
2018-05-11T14:12:29.222Z,99.30
2018-05-11T14:14:58.257Z,98.80
2018-05-11T14:17:26.403Z,98.70
2018-05-11T14:19:54.485Z,98.70
2018-05-11T14:22:22.609Z,98.50
2018-05-11T14:24:50.885Z,98.30
2018-05-11T14:27:18.895Z,98.40
2018-05-11T14:29:47.797Z,98.40
2018-05-11T14:32:16.756Z,98.20
2018-05-11T14:34:44.876Z,98.00
2018-05-11T14:37:15.029Z,98.20
2018-05-11T14:39:43.164Z,97.70
2018-05-11T14:42:11.902Z,97.60
2018-05-11T14:44:40.957Z,97.30
2018-05-11T14:47:09.118Z,97.40
2018-05-11T14:49:42.139Z,97.70
2018-05-11T14:52:11.759Z,97.90
2018-05-11T14:54:40.096Z,98.50
2018-05-11T14:57:07.645Z,98.50
2018-05-11T14:59:35.272Z,98.70
2018-05-11T15:02:02.797Z,99.00
2018-05-11T15:04:30.384Z,99.20
2018-05-11T15:06:57.993Z,99.40
2018-05-11T15:09:25.588Z,99.30
2018-05-11T15:11:53.094Z,99.30
2018-05-11T15:14:22.883Z,99.20
2018-05-11T15:16:53.251Z,99.20
2018-05-11T15:19:24.052Z,99.20
2018-05-11T15:21:54.583Z,98.90
2018-05-11T15:24:22.134Z,98.60
2018-05-11T15:26:50.322Z,98.60
2018-05-11T15:29:17.947Z,98.50
2018-05-11T15:31:45.528Z,98.30
2018-05-11T15:34:14.120Z,98.40
2018-05-11T15:36:44.647Z,97.90
2018-05-11T15:39:13.774Z,98.10
2018-05-11T15:41:41.312Z,98.10
2018-05-11T15:44:09.609Z,97.90
2018-05-11T15:46:39.209Z,97.80
2018-05-11T15:49:06.795Z,98.00
2018-05-11T15:51:34.351Z,98.40
2018-05-11T15:54:02.445Z,98.40
2018-05-11T15:56:30.573Z,98.30
2018-05-11T15:58:59.768Z,98.30
2018-05-11T16:01:27.922Z,98.20
2018-05-11T16:04:00.137Z,98.40
2018-05-11T16:06:29.248Z,98.60
2018-05-11T16:09:07.043Z,98.70
2018-05-11T16:11:35.141Z,98.80
2018-05-11T16:14:09.946Z,98.70
2018-05-11T16:16:38.818Z,99.00
2018-05-11T16:19:07.704Z,99.10
2018-05-11T16:24:33.258Z,98.80
2018-05-11T16:27:01.396Z,99.00
2018-05-11T16:29:35.852Z,99.10
2018-05-11T16:32:16.041Z,99.20
2018-05-11T16:34:44.307Z,99.60
2018-05-11T16:37:16.161Z,99.90
2018-05-11T16:39:45.188Z,99.90
2018-05-11T16:42:17.495Z,99.80
2018-05-11T16:44:45.661Z,99.80
2018-05-11T16:47:13.755Z,99.70
2018-05-11T16:49:41.851Z,99.90
2018-05-11T16:52:13.181Z,99.90
2018-05-11T16:54:47.989Z,99.80
2018-05-11T16:57:16.092Z,99.70
2018-05-11T16:59:46.114Z,99.50
2018-05-11T17:02:14.206Z,99.50
2018-05-11T17:04:42.302Z,99.40
2018-05-11T17:07:10.433Z,99.50
2018-05-11T17:09:39.284Z,99.80
2018-05-11T17:12:07.633Z,99.50
2018-05-11T17:14:35.907Z,99.70
2018-05-11T17:17:04.047Z,99.70
2018-05-11T17:19:32.150Z,99.70
2018-05-11T17:22:00.305Z,99.70
2018-05-11T17:24:33.287Z,99.50
2018-05-11T17:27:05.396Z,99.70
2018-05-11T17:29:33.492Z,99.80
2018-05-11T17:32:01.593Z,99.70
2018-05-11T17:34:29.667Z,99.70
2018-05-11T17:36:57.768Z,99.60
2018-05-11T17:39:25.964Z,99.60
2018-05-11T17:41:54.042Z,99.70
2018-05-11T17:44:22.641Z,99.70
2018-05-11T17:46:50.775Z,99.80
2018-05-11T17:49:28.455Z,99.90
2018-05-11T17:51:57.321Z,99.90
2018-05-11T17:54:25.451Z,99.90
2018-05-11T17:56:54.384Z,99.90
2018-05-11T17:59:22.497Z,99.90
2018-05-11T18:01:50.603Z,99.90
2018-05-11T18:04:19.576Z,99.90
2018-05-11T18:06:48.649Z,99.90
2018-05-11T18:09:16.743Z,99.90
2018-05-11T18:11:49.115Z,99.90
2018-05-11T18:14:17.205Z,99.90
2018-05-11T18:16:49.470Z,99.90
2018-05-11T18:19:22.508Z,99.90
2018-05-11T18:21:52.754Z,99.90
2018-05-11T18:24:20.844Z,99.90
2018-05-11T18:26:50.013Z,99.90
2018-05-11T18:29:18.143Z,99.90
2018-05-11T18:31:47.208Z,99.90
2018-05-11T18:34:17.251Z,99.90
2018-05-11T18:36:45.479Z,99.90
2018-05-11T18:39:14.499Z,99.90
2018-05-11T18:41:43.370Z,99.90
2018-05-11T18:44:12.457Z,99.90
2018-05-11T18:46:40.550Z,99.90
2018-05-11T18:49:09.618Z,99.90
2018-05-11T18:51:38.663Z,99.90
2018-05-11T18:54:07.066Z,99.90
2018-05-11T18:56:34.860Z,99.90
2018-05-11T18:59:03.831Z,99.90
2018-05-11T19:01:31.961Z,99.90
2018-05-11T19:04:05.971Z,99.90
2018-05-11T19:06:34.057Z,99.90
2018-05-11T19:09:02.231Z,99.90
2018-05-11T19:11:31.096Z,99.90
2018-05-11T19:14:02.522Z,99.90
2018-05-11T19:16:30.624Z,99.90
2018-05-11T19:18:58.714Z,99.90
2018-05-11T19:21:31.334Z,99.90
2018-05-11T19:24:01.333Z,99.90
2018-05-11T19:26:32.260Z,99.90
2018-05-11T19:29:02.109Z,99.90
2018-05-11T19:31:36.056Z,99.90
2018-05-11T19:34:04.196Z,99.90
2018-05-11T19:36:32.278Z,99.90
2018-05-11T19:39:02.816Z,99.90
2018-05-11T19:41:30.938Z,99.90
2018-05-11T19:44:00.735Z,99.90
2018-05-11T19:46:31.997Z,99.90
2018-05-11T19:49:01.032Z,99.90
2018-05-11T19:51:29.211Z,99.90
2018-05-11T19:53:58.259Z,99.90
2018-05-11T19:56:28.943Z,99.90
2018-05-11T19:58:57.033Z,99.90
2018-05-11T20:01:26.167Z,99.90
2018-05-11T20:03:57.203Z,99.90
2018-05-11T20:06:25.389Z,99.90
2018-05-11T20:08:53.470Z,99.90
2018-05-11T20:11:21.598Z,99.90
2018-05-11T20:13:50.690Z,99.90
2018-05-11T20:16:18.779Z,99.90
2018-05-11T20:18:46.883Z,99.90
2018-05-11T20:21:16.001Z,99.90
2018-05-11T20:23:45.759Z,99.90
2018-05-11T20:26:13.855Z,99.90
2018-05-11T20:28:42.974Z,99.90
2018-05-11T20:31:12.097Z,99.90
2018-05-11T20:33:40.199Z,99.90
2018-05-11T20:36:08.762Z,99.90
2018-05-11T20:38:38.976Z,99.90
2018-05-11T20:41:07.073Z,99.90
2018-05-11T20:43:35.217Z,99.90
2018-05-11T20:46:03.315Z,99.90
2018-05-11T20:48:34.361Z,99.90
2018-05-11T20:51:03.451Z,99.90
2018-05-11T20:53:34.274Z,99.90
2018-05-11T20:56:02.358Z,99.90
2018-05-11T20:58:30.460Z,99.90
2018-05-11T21:00:58.586Z,99.90
2018-05-11T21:03:27.222Z,99.90
2018-05-11T21:05:55.314Z,99.90
2018-05-11T21:08:23.404Z,99.90
2018-05-11T21:10:51.514Z,99.90
2018-05-11T21:13:19.597Z,99.90
2018-05-11T21:15:49.664Z,99.90
2018-05-11T21:18:18.695Z,99.90
2018-05-11T21:20:51.127Z,99.90
2018-05-11T21:23:19.243Z,99.90
2018-05-11T21:25:54.216Z,99.90
2018-05-11T21:28:22.324Z,99.90
2018-05-11T21:30:51.198Z,99.90
2018-05-11T21:33:25.731Z,99.90
2018-05-11T21:35:54.533Z,99.90
2018-05-11T21:38:28.582Z,99.90
2018-05-11T21:40:57.490Z,99.90
2018-05-11T21:43:25.550Z,99.90
2018-05-11T21:45:53.644Z,99.90
2018-05-11T21:48:22.526Z,99.90
2018-05-11T21:50:50.603Z,99.90
2018-05-11T21:53:22.662Z,99.90
2018-05-11T21:55:50.762Z,99.90
2018-05-11T21:58:27.518Z,99.90
2018-05-11T22:00:56.030Z,99.90
2018-05-11T22:03:24.106Z,99.90
2018-05-11T22:05:59.643Z,99.90
2018-05-11T22:08:30.818Z,99.90
2018-05-11T22:10:58.947Z,99.90
2018-05-11T22:13:27.137Z,99.90
2018-05-11T22:15:55.911Z,99.90
2018-05-11T22:18:25.903Z,99.90
2018-05-11T22:20:54.043Z,99.90
2018-05-11T22:23:22.117Z,99.90
2018-05-11T22:25:52.252Z,99.90
2018-05-11T22:28:20.352Z,99.90
2018-05-11T22:30:48.434Z,99.90
2018-05-11T22:33:16.532Z,99.90
2018-05-11T22:35:45.372Z,99.90
2018-05-11T22:38:16.541Z,99.90
2018-05-11T22:40:44.632Z,99.90
2018-05-11T22:43:13.693Z,99.90
2018-05-11T22:45:43.768Z,99.90
2018-05-11T22:48:13.869Z,99.90
2018-05-11T22:50:42.869Z,99.90
2018-05-11T22:53:10.980Z,99.90
2018-05-11T22:55:40.941Z,99.90
2018-05-11T22:58:09.399Z,99.90
2018-05-11T23:00:55.508Z,99.90
2018-05-11T23:03:26.621Z,99.90
2018-05-11T23:08:51.438Z,99.90
2018-05-11T23:11:21.400Z,99.90
2018-05-11T23:13:51.038Z,99.90
2018-05-11T23:16:20.047Z,99.90
2018-05-11T23:18:48.140Z,99.90
2018-05-11T23:21:16.221Z,99.90
2018-05-11T23:23:44.316Z,99.90
2018-05-11T23:26:20.946Z,99.90
2018-05-11T23:28:51.016Z,99.90
2018-05-11T23:31:19.113Z,99.90
2018-05-11T23:33:47.197Z,99.90
2018-05-11T23:36:15.294Z,99.90
2018-05-11T23:38:44.348Z,99.90
2018-05-11T23:41:12.445Z,99.90
2018-05-11T23:43:40.523Z,99.90
2018-05-11T23:46:09.535Z,99.90
2018-05-11T23:48:38.645Z,99.90
2018-05-11T23:51:08.674Z,99.90
2018-05-11T23:53:37.674Z,99.90
2018-05-11T23:56:24.005Z,99.90
2018-05-11T23:58:52.093Z,99.90
